Barnegat Township, New Jersey
Current Conditions -  °F | °C
As of 5:15 PM on Sunday 21 Dec 2014 (Local Time) from KMJX Reporting Station
Few Clouds Few Clouds  
Wind Chill: 32°   Ceiling: Unl
Heat Index: 32°   Visibility: 10mi
Dew Point: 25°   Wind: 3mph
Humidity: 75%   Direction: 330°NNW
Pressure: 30.31"   Gusts: NA
Location:  39.7838°N, 74.3306°W
Report Text: KMJX 212215Z AUTO 33003KT 10SM FEW025 00/M04 A3031 RMK AO1
Loading
Personal Weather Stations






























Interactive Weather Map New forecast layout! Learn more

10-Day Weather Forecast

Advertisements
Track Severe Weather on mobile